Time;durP1;ratioP1;P1;durP2;ratioP2;P2;SDS_P1;SDS_P2;PMS_P1;PMS_P2;Temp;Humidity;BMP_temperature;BMP_pressure;BME280_temperature;BME280_humidity;BME280_pressure;Samples;Min_cycle;Max_cycle;Signal;HPM_P1;HPM_P2
2023/03/17 00:00:09;;;;;;;8.60;5.28;;;7.90;99.90;;;;;;5082629;28;20053;-70
2023/03/17 00:02:35;;;;;;;10.35;5.45;;;7.90;99.90;;;;;;5067593;28;20059;-70
2023/03/17 00:05:01;;;;;;;9.45;4.68;;;7.90;99.90;;;;;;5063801;28;20047;-70
2023/03/17 00:07:27;;;;;;;7.10;4.78;;;8.00;99.90;;;;;;5059871;28;20089;-70
2023/03/17 00:09:53;;;;;;;11.90;4.90;;;8.10;99.90;;;;;;5082462;28;20036;-70
2023/03/17 00:12:19;;;;;;;8.23;5.25;;;8.10;99.90;;;;;;5078541;28;20039;-70
2023/03/17 00:14:46;;;;;;;8.82;4.97;;;8.10;99.90;;;;;;5045757;28;20032;-70
2023/03/17 00:17:13;;;;;;;9.23;5.43;;;8.10;99.90;;;;;;5064653;28;20083;-70
2023/03/17 00:19:40;;;;;;;9.13;4.95;;;8.00;99.90;;;;;;5067082;28;20067;-70
2023/03/17 00:22:15;;;;;;;7.88;4.93;;;8.00;99.90;;;;;;5083750;28;20052;-69
2023/03/17 00:24:41;;;;;;;9.05;5.30;;;8.00;99.90;;;;;;5081827;28;20055;-70
2023/03/17 00:27:12;;;;;;;10.85;5.32;;;8.00;99.90;;;;;;5049990;28;20040;-70
2023/03/17 00:29:39;;;;;;;9.13;5.30;;;7.90;99.90;;;;;;5060313;28;20050;-70
2023/03/17 00:32:14;;;;;;;8.07;4.95;;;7.90;99.90;;;;;;5069409;28;20036;-69
2023/03/17 00:34:40;;;;;;;9.75;5.18;;;8.00;99.90;;;;;;5069929;28;20363;-69
2023/03/17 00:37:11;;;;;;;8.95;4.95;;;7.90;99.90;;;;;;5066450;28;20040;-70
2023/03/17 00:39:38;;;;;;;8.35;5.20;;;7.90;99.90;;;;;;5084263;28;20039;-69
2023/03/17 00:42:05;;;;;;;8.77;4.93;;;7.90;99.90;;;;;;5085768;28;20036;-70
2023/03/17 00:44:32;;;;;;;8.07;4.90;;;7.90;99.90;;;;;;5068207;28;20468;-70
2023/03/17 00:46:58;;;;;;;10.00;5.40;;;8.00;99.90;;;;;;5063826;28;20044;-70
2023/03/17 00:49:25;;;;;;;8.80;5.00;;;7.90;99.90;;;;;;5078947;28;20047;-69
2023/03/17 00:51:51;;;;;;;9.23;5.18;;;7.90;99.90;;;;;;5082933;28;20093;-70
2023/03/17 00:54:18;;;;;;;8.50;5.00;;;7.90;99.90;;;;;;5084187;28;20040;-70
2023/03/17 00:56:44;;;;;;;8.02;5.25;;;7.90;99.90;;;;;;5067814;28;20035;-69
2023/03/17 00:59:19;;;;;;;8.07;5.55;;;7.90;99.90;;;;;;5082338;28;20051;-70
2023/03/17 01:01:45;;;;;;;9.38;5.10;;;7.90;99.90;;;;;;5087932;28;20059;-70
2023/03/17 01:04:11;;;;;;;8.23;5.00;;;7.90;99.90;;;;;;5079062;28;20044;-70
2023/03/17 01:06:37;;;;;;;8.43;5.10;;;7.90;99.90;;;;;;5068098;28;20046;-70
2023/03/17 01:09:03;;;;;;;8.15;4.88;;;8.00;99.90;;;;;;5065643;28;20076;-70
2023/03/17 01:11:29;;;;;;;9.00;5.03;;;8.00;99.90;;;;;;5049750;28;20063;-70
2023/03/17 01:13:56;;;;;;;7.80;4.88;;;8.00;99.90;;;;;;5087223;28;20121;-70
2023/03/17 01:16:22;;;;;;;8.05;4.35;;;8.10;99.90;;;;;;5087345;28;20048;-70
2023/03/17 01:18:48;;;;;;;7.65;4.72;;;8.10;99.90;;;;;;5068860;28;20115;-70
2023/03/17 01:21:14;;;;;;;8.52;4.68;;;8.10;99.90;;;;;;5057354;28;20051;-70
2023/03/17 01:23:40;;;;;;;9.52;5.22;;;8.10;99.90;;;;;;5067724;28;20056;-69
2023/03/17 01:26:07;;;;;;;8.23;4.82;;;8.10;99.90;;;;;;5083195;28;20062;-70
2023/03/17 01:28:33;;;;;;;8.90;5.03;;;8.10;99.90;;;;;;5085567;28;20047;-70
2023/03/17 01:30:59;;;;;;;11.00;5.28;;;8.00;99.90;;;;;;5087533;28;20404;-70
2023/03/17 01:33:25;;;;;;;8.40;4.63;;;8.00;99.90;;;;;;5072360;28;20032;-70
2023/03/17 01:35:51;;;;;;;10.32;5.10;;;8.00;99.90;;;;;;5082827;28;20111;-71
2023/03/17 01:38:17;;;;;;;8.27;4.95;;;8.00;99.90;;;;;;5075607;28;20040;-70
2023/03/17 01:40:45;;;;;;;6.50;4.80;;;8.00;99.90;;;;;;5085183;28;20040;-70
2023/03/17 01:43:11;;;;;;;8.82;4.97;;;8.00;99.90;;;;;;5051264;28;20044;-70
2023/03/17 01:46:14;;;;;;;11.27;4.82;;;8.00;99.90;;;;;;5045200;28;20101;-71
2023/03/17 01:48:57;;;;;;;8.45;4.90;;;8.00;99.90;;;;;;5081919;28;20523;-70
2023/03/17 01:51:38;;;;;;;10.73;5.00;;;8.00;99.90;;;;;;5064305;28;20047;-70
2023/03/17 01:54:15;;;;;;;8.18;4.85;;;8.00;99.90;;;;;;5077252;28;20090;-70
2023/03/17 01:56:44;;;;;;;7.80;4.50;;;8.00;99.90;;;;;;5062250;28;20058;-70
2023/03/17 01:59:15;;;;;;;8.13;4.68;;;8.00;99.90;;;;;;5083532;28;20044;-70
2023/03/17 02:01:46;;;;;;;8.43;4.88;;;7.90;99.90;;;;;;5080398;28;20223;-70
2023/03/17 02:04:12;;;;;;;8.18;4.70;;;7.90;99.90;;;;;;5084593;28;20043;-70
2023/03/17 02:06:38;;;;;;;10.57;5.10;;;7.90;99.90;;;;;;5046754;28;20040;-70
2023/03/17 02:09:03;;;;;;;8.73;4.88;;;7.90;99.90;;;;;;5085222;28;20071;-70
2023/03/17 02:11:30;;;;;;;8.05;4.93;;;7.90;99.90;;;;;;5068193;28;20510;-70
2023/03/17 02:13:56;;;;;;;8.18;4.75;;;7.80;99.90;;;;;;5054773;28;20040;-71
2023/03/17 02:16:22;;;;;;;9.15;5.00;;;7.80;99.90;;;;;;5068302;28;20032;-70
2023/03/17 02:18:47;;;;;;;7.65;4.68;;;7.80;99.90;;;;;;5063854;28;20040;-70
2023/03/17 02:21:51;;;;;;;8.07;4.68;;;7.80;99.90;;;;;;5063975;28;20064;-71
2023/03/17 02:24:36;;;;;;;8.40;4.82;;;7.70;99.90;;;;;;4989290;28;20104;-70
2023/03/17 02:27:35;;;;;;;8.40;4.80;;;7.70;99.90;;;;;;5005728;28;20054;-71
2023/03/17 02:30:01;;;;;;;8.35;4.93;;;7.60;99.90;;;;;;4909530;29;20170;-71
2023/03/17 02:32:27;;;;;;;9.75;5.18;;;7.60;99.90;;;;;;4917450;29;20094;-70
2023/03/17 02:34:53;;;;;;;8.98;5.20;;;7.60;99.90;;;;;;4917056;29;20047;-70
2023/03/17 02:37:19;;;;;;;9.80;4.57;;;7.60;99.90;;;;;;4911596;29;20448;-71
2023/03/17 02:39:45;;;;;;;8.18;5.10;;;7.60;99.90;;;;;;4930341;29;20134;-71
2023/03/17 02:42:11;;;;;;;9.95;5.43;;;7.70;99.90;;;;;;4927244;29;20131;-71
2023/03/17 02:44:37;;;;;;;8.05;4.90;;;7.70;99.90;;;;;;4914279;29;20159;-71
2023/03/17 02:47:04;;;;;;;7.72;4.68;;;7.70;99.90;;;;;;4933334;29;20135;-70
2023/03/17 02:49:30;;;;;;;9.57;5.20;;;7.70;99.90;;;;;;4921630;29;20487;-71
2023/03/17 02:51:56;;;;;;;9.55;4.78;;;7.80;99.90;;;;;;4925357;29;20052;-71
2023/03/17 02:54:21;;;;;;;9.95;4.63;;;7.80;99.90;;;;;;4931373;29;20050;-70
2023/03/17 02:56:47;;;;;;;8.68;4.75;;;7.80;99.90;;;;;;4892658;29;20130;-70
2023/03/17 02:59:13;;;;;;;9.02;5.20;;;7.80;99.90;;;;;;4960535;28;20165;-71
2023/03/17 03:01:38;;;;;;;8.45;4.65;;;7.80;99.90;;;;;;4986154;28;20079;-70
2023/03/17 03:04:05;;;;;;;8.63;4.70;;;7.80;99.90;;;;;;4978526;28;20046;-71
2023/03/17 03:06:31;;;;;;;8.20;5.00;;;7.80;99.90;;;;;;5044349;28;20415;-71
2023/03/17 03:08:57;;;;;;;8.90;5.05;;;7.80;99.90;;;;;;5061341;28;20043;-71
2023/03/17 03:11:22;;;;;;;9.65;5.30;;;7.80;99.90;;;;;;5056848;28;20556;-71
2023/03/17 03:13:48;;;;;;;9.07;5.30;;;7.70;99.90;;;;;;5077659;28;20036;-71
2023/03/17 03:16:14;;;;;;;9.27;5.18;;;7.80;99.90;;;;;;5084885;28;20070;-71
2023/03/17 03:18:40;;;;;;;8.13;4.65;;;7.70;99.90;;;;;;5041601;28;20144;-71
2023/03/17 03:21:06;;;;;;;7.22;4.93;;;7.70;99.90;;;;;;5049279;28;20143;-71
2023/03/17 03:23:32;;;;;;;10.63;5.32;;;7.70;99.90;;;;;;5076750;28;20051;-71
2023/03/17 03:25:58;;;;;;;9.52;5.25;;;7.70;99.90;;;;;;5084371;28;20078;-71
2023/03/17 03:28:24;;;;;;;10.20;5.72;;;7.70;99.90;;;;;;5065704;28;20079;-71
2023/03/17 03:30:50;;;;;;;10.75;5.10;;;7.70;99.90;;;;;;5082675;28;20423;-71
2023/03/17 03:33:16;;;;;;;9.07;4.80;;;7.70;99.90;;;;;;5077290;28;20484;-70
2023/03/17 03:35:43;;;;;;;9.05;4.80;;;7.70;99.90;;;;;;5072390;28;20340;-70
2023/03/17 03:38:10;;;;;;;10.23;4.90;;;7.70;99.90;;;;;;5078850;28;20051;-71
2023/03/17 03:40:36;;;;;;;9.52;5.43;;;7.70;99.90;;;;;;5084792;28;20408;-70
2023/03/17 03:43:02;;;;;;;8.88;4.90;;;7.80;99.90;;;;;;5057073;28;20052;-70
2023/03/17 03:45:28;;;;;;;8.80;4.95;;;7.80;99.90;;;;;;5050703;28;20119;-71
2023/03/17 03:47:54;;;;;;;9.13;4.88;;;7.80;99.90;;;;;;5083518;28;20079;-71
2023/03/17 03:50:20;;;;;;;8.48;5.00;;;7.80;99.90;;;;;;5083714;28;20396;-70
2023/03/17 03:52:46;;;;;;;9.10;4.85;;;7.80;99.90;;;;;;5067331;28;20166;-70
2023/03/17 03:55:11;;;;;;;8.82;5.07;;;7.80;99.90;;;;;;5066317;28;20131;-71
2023/03/17 03:57:37;;;;;;;10.30;5.05;;;7.80;99.90;;;;;;5080251;28;20463;-70
2023/03/17 04:00:04;;;;;;;10.75;4.68;;;7.80;99.90;;;;;;5078648;28;20449;-70
2023/03/17 04:02:31;;;;;;;7.97;4.68;;;7.80;99.90;;;;;;5057110;28;20074;-71
2023/03/17 04:04:56;;;;;;;8.65;5.03;;;7.80;99.90;;;;;;5088704;28;20074;-71
2023/03/17 04:07:23;;;;;;;8.93;5.15;;;7.80;99.90;;;;;;5067994;28;20566;-71
2023/03/17 04:09:48;;;;;;;9.63;5.03;;;7.70;99.90;;;;;;5086921;28;20035;-71
2023/03/17 04:12:15;;;;;;;9.70;5.07;;;7.70;99.90;;;;;;5088560;28;20123;-70
2023/03/17 04:14:41;;;;;;;10.02;5.25;;;7.60;99.90;;;;;;5081395;28;20047;-71
2023/03/17 04:17:07;;;;;;;8.02;5.00;;;7.60;99.90;;;;;;5068208;28;20037;-71
2023/03/17 04:19:33;;;;;;;9.65;5.30;;;7.60;99.90;;;;;;5056899;28;20567;-71
2023/03/17 04:21:59;;;;;;;8.88;4.60;;;7.50;99.90;;;;;;5089240;28;20043;-71
2023/03/17 04:24:26;;;;;;;11.90;5.18;;;7.50;99.90;;;;;;5052781;28;20052;-71
2023/03/17 04:26:52;;;;;;;8.80;4.57;;;7.40;99.90;;;;;;5085408;28;20044;-71
2023/03/17 04:29:18;;;;;;;8.60;4.93;;;7.40;99.90;;;;;;5087560;28;20043;-70
2023/03/17 04:31:44;;;;;;;9.77;4.93;;;7.40;99.90;;;;;;5086171;28;20040;-71
2023/03/17 04:34:15;;;;;;;9.07;4.60;;;7.40;99.90;;;;;;5066887;28;20032;-70
2023/03/17 04:36:42;;;;;;;8.00;4.78;;;7.40;99.90;;;;;;5071920;28;20060;-70
2023/03/17 04:39:08;;;;;;;10.18;5.18;;;7.40;99.90;;;;;;5058612;28;20048;-71
2023/03/17 04:41:34;;;;;;;6.70;4.30;;;7.40;99.90;;;;;;5071101;28;20047;-71
2023/03/17 04:44:00;;;;;;;9.80;5.13;;;7.50;99.90;;;;;;5066065;28;20724;-71
2023/03/17 04:46:26;;;;;;;9.45;5.32;;;7.40;99.90;;;;;;5067574;28;20032;-71
2023/03/17 04:48:52;;;;;;;9.43;5.32;;;7.40;99.90;;;;;;5059859;28;20794;-71
2023/03/17 04:51:17;;;;;;;9.40;5.05;;;7.30;99.90;;;;;;5069917;28;20131;-70
2023/03/17 04:53:43;;;;;;;8.75;4.53;;;7.30;99.90;;;;;;5087515;28;20040;-71
2023/03/17 04:56:10;;;;;;;10.18;5.60;;;7.30;99.90;;;;;;5067519;28;20063;-71
2023/03/17 04:58:36;;;;;;;8.93;5.35;;;7.30;99.90;;;;;;5086577;28;20077;-71
2023/03/17 05:01:02;;;;;;;8.15;4.60;;;7.30;99.90;;;;;;5086394;28;20074;-70
2023/03/17 05:03:29;;;;;;;8.70;5.10;;;7.30;99.90;;;;;;5082415;28;20717;-71
2023/03/17 05:05:58;;;;;;;7.55;4.38;;;7.30;99.90;;;;;;5085422;28;20032;-71
2023/03/17 05:08:25;;;;;;;10.43;4.85;;;7.30;99.90;;;;;;5087081;28;20036;-70
2023/03/17 05:10:51;;;;;;;8.18;4.38;;;7.30;99.90;;;;;;5086347;28;20051;-70
2023/03/17 05:13:17;;;;;;;8.73;5.30;;;7.40;99.90;;;;;;5063304;28;20032;-70
2023/03/17 05:15:47;;;;;;;8.75;4.63;;;7.40;99.90;;;;;;5086835;28;20075;-71
2023/03/17 05:18:13;;;;;;;9.75;5.20;;;7.40;99.90;;;;;;5086803;28;20135;-70
2023/03/17 05:20:39;;;;;;;10.02;4.85;;;7.50;99.90;;;;;;5058201;28;20040;-71
2023/03/17 05:23:04;;;;;;;9.00;5.00;;;7.50;99.90;;;;;;5066200;28;20086;-71
2023/03/17 05:25:30;;;;;;;9.40;5.00;;;7.50;99.90;;;;;;5086798;28;20527;-70
2023/03/17 05:27:57;;;;;;;6.97;4.55;;;7.50;99.90;;;;;;5086578;28;20476;-71
2023/03/17 05:30:24;;;;;;;7.10;4.43;;;7.50;99.90;;;;;;5085109;28;20036;-70
2023/03/17 05:32:50;;;;;;;10.13;5.20;;;7.50;99.90;;;;;;5069195;28;20051;-70
2023/03/17 05:35:16;;;;;;;9.57;4.93;;;7.60;99.90;;;;;;5062373;28;20511;-70
2023/03/17 05:37:42;;;;;;;9.15;4.78;;;7.60;99.90;;;;;;5074114;28;20040;-71
2023/03/17 05:40:09;;;;;;;9.15;4.85;;;7.60;99.90;;;;;;5068197;28;20139;-71
2023/03/17 05:42:34;;;;;;;7.45;4.57;;;7.70;99.90;;;;;;5084363;28;20044;-70
2023/03/17 05:45:00;;;;;;;8.15;4.03;;;7.70;99.90;;;;;;5048528;28;20126;-71
2023/03/17 05:47:25;;;;;;;8.20;4.32;;;7.70;99.90;;;;;;5086267;28;20121;-71
2023/03/17 05:49:51;;;;;;;8.88;5.35;;;7.80;99.90;;;;;;5067585;28;20035;-70
2023/03/17 05:52:17;;;;;;;7.90;4.60;;;7.80;99.90;;;;;;5068347;28;20487;-70
2023/03/17 05:54:43;;;;;;;7.03;4.10;;;7.80;99.90;;;;;;5059795;28;20040;-71
2023/03/17 05:57:09;;;;;;;7.93;4.63;;;7.80;99.90;;;;;;5061213;28;20044;-70
2023/03/17 05:59:35;;;;;;;9.43;5.05;;;7.80;99.90;;;;;;5076861;28;20044;-71
2023/03/17 06:02:01;;;;;;;9.88;5.20;;;7.80;99.90;;;;;;5042712;28;20056;-71
2023/03/17 06:04:27;;;;;;;7.93;4.53;;;7.80;99.90;;;;;;5050444;28;20113;-71
2023/03/17 06:06:53;;;;;;;9.15;4.85;;;7.70;99.90;;;;;;5056020;28;20513;-71
2023/03/17 06:09:18;;;;;;;8.75;4.80;;;7.70;99.90;;;;;;5068179;28;20100;-69
2023/03/17 06:11:44;;;;;;;8.35;5.05;;;7.70;99.90;;;;;;5083531;28;20077;-70
2023/03/17 06:14:10;;;;;;;9.45;4.13;;;7.70;99.90;;;;;;5084911;28;20483;-71
2023/03/17 06:16:35;;;;;;;12.57;5.10;;;7.70;99.90;;;;;;5066833;28;20048;-70
2023/03/17 06:19:01;;;;;;;9.55;5.22;;;7.70;99.90;;;;;;5084117;28;20040;-70
2023/03/17 06:21:27;;;;;;;8.73;4.95;;;7.80;99.90;;;;;;5086223;28;20462;-71
2023/03/17 06:23:53;;;;;;;11.00;5.10;;;7.80;99.90;;;;;;5075332;28;20051;-70
2023/03/17 06:26:18;;;;;;;9.18;5.03;;;7.80;99.90;;;;;;5079995;28;20504;-70
2023/03/17 06:28:44;;;;;;;8.70;5.00;;;7.80;99.90;;;;;;5065556;28;20038;-71
2023/03/17 06:31:10;;;;;;;7.38;4.78;;;7.90;99.90;;;;;;5086779;28;20032;-71
2023/03/17 06:33:35;;;;;;;8.02;4.88;;;7.90;99.90;;;;;;5085305;28;20035;-70
2023/03/17 06:36:02;;;;;;;9.82;4.70;;;7.90;99.90;;;;;;5081813;28;20037;-71
2023/03/17 06:38:27;;;;;;;9.32;4.90;;;7.90;99.90;;;;;;5081246;28;20040;-70
2023/03/17 06:40:53;;;;;;;9.15;5.05;;;7.90;99.90;;;;;;5073081;28;20147;-71
2023/03/17 06:43:18;;;;;;;7.22;4.75;;;7.90;99.90;;;;;;5063128;28;20460;-70
2023/03/17 06:45:45;;;;;;;8.00;4.63;;;7.90;99.90;;;;;;5079883;28;20077;-70
2023/03/17 06:48:11;;;;;;;8.35;4.90;;;7.90;99.90;;;;;;5064947;28;20059;-69
2023/03/17 06:50:37;;;;;;;8.90;5.00;;;7.90;99.90;;;;;;5065003;28;20043;-70
2023/03/17 06:53:03;;;;;;;7.88;4.50;;;7.90;99.90;;;;;;5073912;28;20043;-71
2023/03/17 06:55:28;;;;;;;8.07;4.90;;;7.90;99.90;;;;;;5080250;28;20032;-70
2023/03/17 06:57:54;;;;;;;8.65;5.30;;;7.90;99.90;;;;;;5084910;28;20082;-69
2023/03/17 07:00:21;;;;;;;9.32;4.80;;;8.00;99.90;;;;;;5083837;28;20055;-69
2023/03/17 07:02:48;;;;;;;10.50;4.65;;;8.00;99.90;;;;;;5077415;28;20032;-72
2023/03/17 07:05:14;;;;;;;9.07;4.90;;;8.00;99.90;;;;;;5084186;28;20047;-70
2023/03/17 07:07:40;;;;;;;10.30;5.10;;;8.00;99.90;;;;;;5084610;28;20059;-71
2023/03/17 07:10:09;;;;;;;9.77;4.93;;;8.10;99.90;;;;;;5078048;28;20553;-71
2023/03/17 07:12:35;;;;;;;9.98;5.40;;;8.10;99.90;;;;;;5077079;28;20032;-71
2023/03/17 07:15:02;;;;;;;7.60;4.90;;;8.10;99.90;;;;;;5063880;28;20048;-71
2023/03/17 07:17:27;;;;;;;9.85;5.05;;;8.10;99.90;;;;;;5063810;28;20135;-70
2023/03/17 07:19:53;;;;;;;7.95;4.57;;;8.20;99.90;;;;;;5059944;28;20032;-71
2023/03/17 07:22:19;;;;;;;8.45;4.85;;;8.30;99.90;;;;;;5065794;28;20108;-71
2023/03/17 07:24:45;;;;;;;8.05;4.72;;;8.40;99.90;;;;;;5084177;28;20052;-70
2023/03/17 07:27:13;;;;;;;8.13;5.18;;;8.50;99.90;;;;;;5062706;28;20082;-70
2023/03/17 07:29:38;;;;;;;8.60;4.90;;;8.70;99.90;;;;;;5083820;28;20450;-71
2023/03/17 07:32:06;;;;;;;9.48;4.68;;;8.90;99.90;;;;;;5061222;28;20045;-71
2023/03/17 07:34:32;;;;;;;9.60;5.03;;;9.00;99.90;;;;;;5082737;28;20040;-71
2023/03/17 07:36:58;;;;;;;11.13;4.95;;;9.10;99.90;;;;;;5084556;28;20146;-70
2023/03/17 07:39:24;;;;;;;8.65;4.80;;;9.20;99.90;;;;;;5080106;28;20444;-71
2023/03/17 07:41:54;;;;;;;8.45;4.90;;;9.30;99.90;;;;;;5087551;28;20044;-70
2023/03/17 07:44:23;;;;;;;11.20;5.32;;;9.50;99.90;;;;;;5064519;28;20060;-70
2023/03/17 07:46:50;;;;;;;8.00;4.13;;;9.70;99.90;;;;;;5068897;28;20081;-70
2023/03/17 07:49:17;;;;;;;8.13;4.80;;;9.80;99.90;;;;;;5061072;28;20147;-70
2023/03/17 07:51:42;;;;;;;8.70;4.80;;;9.90;99.90;;;;;;5068723;28;20465;-71
2023/03/17 07:54:13;;;;;;;8.68;4.60;;;9.90;99.90;;;;;;5067941;28;20044;-70
2023/03/17 07:56:39;;;;;;;8.30;4.72;;;9.80;99.90;;;;;;5088789;28;20035;-71
2023/03/17 07:59:07;;;;;;;9.70;5.20;;;9.90;99.90;;;;;;5081455;28;20047;-71
2023/03/17 08:01:34;;;;;;;9.10;5.03;;;9.80;99.90;;;;;;5082119;28;20051;-70
2023/03/17 08:04:00;;;;;;;9.32;4.82;;;9.90;99.90;;;;;;5059385;28;20077;-70
2023/03/17 08:06:26;;;;;;;9.52;5.40;;;9.90;99.90;;;;;;5065802;28;20036;-70
2023/03/17 08:08:53;;;;;;;9.20;5.20;;;9.90;99.90;;;;;;5087845;28;20089;-71
2023/03/17 08:11:19;;;;;;;10.73;4.80;;;9.80;99.90;;;;;;5088400;28;20044;-70
2023/03/17 08:13:45;;;;;;;8.88;4.82;;;9.80;99.90;;;;;;5053602;28;20061;-70
2023/03/17 08:16:11;;;;;;;9.45;4.90;;;9.80;99.90;;;;;;5044628;28;20051;-72
2023/03/17 08:18:37;;;;;;;9.65;5.00;;;9.80;99.90;;;;;;5083948;28;20043;-71
2023/03/17 08:21:03;;;;;;;8.35;5.20;;;9.80;99.90;;;;;;5084685;28;20035;-70
2023/03/17 08:23:29;;;;;;;9.35;5.55;;;9.80;99.90;;;;;;5088871;28;20055;-70
2023/03/17 08:26:00;;;;;;;10.50;5.20;;;9.80;99.90;;;;;;5067751;28;20552;-70
2023/03/17 08:28:26;;;;;;;9.82;5.40;;;9.80;99.90;;;;;;5067240;28;20072;-70
2023/03/17 08:30:53;;;;;;;8.80;5.25;;;9.80;99.90;;;;;;5052455;28;20079;-71
2023/03/17 08:33:19;;;;;;;9.45;5.40;;;9.80;99.90;;;;;;5075875;28;20027;-70
2023/03/17 08:35:45;;;;;;;8.18;4.93;;;9.80;99.90;;;;;;5089145;28;20047;-71
2023/03/17 08:38:11;;;;;;;9.35;5.15;;;9.80;99.90;;;;;;5086986;28;20506;-71
2023/03/17 08:40:38;;;;;;;8.60;4.80;;;9.90;99.90;;;;;;5068181;28;20508;-71
2023/03/17 08:43:05;;;;;;;8.35;5.00;;;9.90;99.90;;;;;;5044941;28;20070;-71
2023/03/17 08:45:31;;;;;;;9.80;4.95;;;10.00;99.90;;;;;;5081235;28;20048;-71
2023/03/17 08:47:57;;;;;;;8.07;5.13;;;10.10;99.90;;;;;;5065683;28;20043;-71
2023/03/17 08:50:23;;;;;;;10.38;5.07;;;10.20;99.90;;;;;;5069127;28;20040;-71
2023/03/17 08:52:50;;;;;;;9.38;4.85;;;10.30;99.90;;;;;;5069665;28;20126;-70
2023/03/17 08:55:17;;;;;;;10.98;4.85;;;10.40;99.90;;;;;;5087989;28;20070;-70
2023/03/17 08:57:43;;;;;;;9.23;4.75;;;10.50;99.90;;;;;;5069450;28;20052;-71
2023/03/17 09:00:14;;;;;;;8.40;4.88;;;10.80;99.90;;;;;;5052781;28;20048;-71
2023/03/17 09:02:41;;;;;;;7.05;4.63;;;11.20;99.90;;;;;;5066479;28;20516;-70
2023/03/17 09:05:09;;;;;;;9.35;4.68;;;11.90;99.90;;;;;;5087509;28;20090;-71
2023/03/17 09:07:35;;;;;;;7.88;4.72;;;12.40;99.90;;;;;;5079517;28;20595;-72
2023/03/17 09:10:03;;;;;;;8.15;4.55;;;12.80;99.90;;;;;;5082176;28;20046;-71
2023/03/17 09:12:30;;;;;;;8.13;4.68;;;13.00;99.90;;;;;;5047696;28;20062;-71
2023/03/17 09:14:56;;;;;;;7.43;4.32;;;13.30;99.90;;;;;;5076819;28;20484;-71
2023/03/17 09:17:22;;;;;;;9.45;4.32;;;13.70;99.90;;;;;;5071405;28;20529;-71
2023/03/17 09:19:48;;;;;;;7.72;4.90;;;13.60;99.90;;;;;;5057879;28;20070;-71
2023/03/17 09:22:16;;;;;;;7.75;4.70;;;13.20;99.90;;;;;;5067020;28;20051;-70
2023/03/17 09:24:42;;;;;;;8.23;4.45;;;13.00;99.90;;;;;;5079278;28;20056;-70
2023/03/17 09:27:07;;;;;;;7.97;4.80;;;13.10;99.90;;;;;;5084133;28;20046;-71
2023/03/17 09:29:33;;;;;;;9.52;4.68;;;13.30;99.90;;;;;;5063511;28;20114;-71
2023/03/17 09:31:59;;;;;;;8.15;4.85;;;13.60;99.90;;;;;;5085815;28;20752;-70
2023/03/17 09:34:25;;;;;;;7.72;4.35;;;13.70;99.90;;;;;;5070215;28;20032;-71
2023/03/17 09:36:53;;;;;;;8.07;4.30;;;13.60;99.90;;;;;;5079460;28;20047;-71
2023/03/17 09:39:21;;;;;;;9.00;4.72;;;13.60;99.90;;;;;;5082896;28;20040;-71
2023/03/17 09:41:50;;;;;;;9.90;4.68;;;13.60;99.90;;;;;;5075955;28;20051;-70
2023/03/17 09:44:21;;;;;;;8.55;5.15;;;13.60;99.90;;;;;;5081361;28;20040;-71
2023/03/17 09:47:03;;;;;;;7.95;4.75;;;13.70;99.90;;;;;;5081988;28;20044;-71
2023/03/17 09:49:38;;;;;;;10.52;4.75;;;13.80;99.90;;;;;;5059102;28;20102;-71
2023/03/17 09:52:03;;;;;;;8.35;4.50;;;13.90;99.90;;;;;;5040036;28;20100;-71
2023/03/17 09:54:33;;;;;;;7.63;4.90;;;13.90;99.90;;;;;;5085978;28;20032;-71
2023/03/17 09:57:23;;;;;;;9.90;5.10;;;13.90;99.90;;;;;;5084433;28;20033;-71
2023/03/17 10:00:05;;;;;;;8.15;5.28;;;13.90;99.90;;;;;;5066646;28;20089;-70
2023/03/17 10:02:34;;;;;;;7.22;4.53;;;13.90;99.90;;;;;;5063353;28;20372;-71
2023/03/17 10:05:21;;;;;;;8.50;5.00;;;14.00;99.90;;;;;;5064213;28;20094;-71
2023/03/17 10:08:16;;;;;;;8.32;4.57;;;14.20;99.90;;;;;;5073840;28;20048;-71
2023/03/17 10:10:56;;;;;;;8.98;4.70;;;14.20;99.90;;;;;;5069693;28;20044;-71
2023/03/17 10:14:00;;;;;;;8.60;4.82;;;14.20;99.90;;;;;;5081775;28;20039;-71
2023/03/17 10:16:35;;;;;;;8.75;4.60;;;14.20;99.90;;;;;;5077776;28;20040;-71
2023/03/17 10:19:28;;;;;;;9.68;4.88;;;14.20;99.90;;;;;;5063197;28;20035;-70
2023/03/17 10:22:10;;;;;;;8.55;4.78;;;14.40;99.90;;;;;;5080519;27;20464;-70
2023/03/17 10:24:42;;;;;;;8.60;4.80;;;14.60;99.90;;;;;;5078161;28;20040;-71
2023/03/17 10:27:12;;;;;;;9.98;4.70;;;14.60;99.90;;;;;;5048163;28;20043;-71
2023/03/17 10:29:39;;;;;;;10.77;4.53;;;15.00;99.90;;;;;;5080603;28;20040;-71
2023/03/17 10:32:10;;;;;;;7.82;4.32;;;15.20;99.90;;;;;;5080906;28;20055;-71
2023/03/17 10:34:36;;;;;;;8.40;5.15;;;15.40;99.90;;;;;;5063676;28;20028;-70
2023/03/17 10:37:11;;;;;;;8.07;4.88;;;15.70;99.80;;;;;;5080147;28;20404;-71
2023/03/17 10:39:54;;;;;;;7.85;4.50;;;15.80;99.10;;;;;;5079698;28;20113;-71
2023/03/17 10:42:22;;;;;;;8.53;4.83;;;15.90;99.50;;;;;;5080016;28;20040;-70
2023/03/17 10:45:12;;;;;;;9.00;5.10;;;16.10;98.70;;;;;;5075109;28;20043;-70
2023/03/17 10:47:48;;;;;;;9.13;4.60;;;16.20;98.70;;;;;;5074028;28;20046;-71
2023/03/17 10:50:21;;;;;;;8.73;4.63;;;16.40;99.80;;;;;;5071330;28;20086;-71
2023/03/17 10:52:53;;;;;;;9.52;4.95;;;16.50;99.10;;;;;;5063781;28;20044;-71
2023/03/17 10:55:21;;;;;;;10.10;5.13;;;16.70;98.90;;;;;;5076305;28;20120;-70
2023/03/17 10:57:52;;;;;;;9.82;4.85;;;16.80;99.10;;;;;;5076481;28;20051;-70
2023/03/17 11:00:19;;;;;;;8.18;4.78;;;16.90;98.80;;;;;;5063338;28;20434;-71
2023/03/17 11:02:55;;;;;;;8.13;4.72;;;17.00;98.60;;;;;;5080155;28;20098;-70
2023/03/17 11:05:27;;;;;;;9.88;4.82;;;17.10;98.30;;;;;;5079042;28;20042;-70
2023/03/17 11:08:18;;;;;;;9.23;5.05;;;17.40;98.80;;;;;;5077077;28;20051;-71
2023/03/17 11:10:44;;;;;;;8.02;4.75;;;17.60;98.50;;;;;;5086699;28;20064;-70
2023/03/17 11:13:15;;;;;;;8.80;5.07;;;17.70;96.40;;;;;;5076832;28;20051;-70
2023/03/17 11:15:48;;;;;;;8.30;4.97;;;17.60;96.90;;;;;;5077320;28;20070;-71
2023/03/17 11:18:33;;;;;;;8.07;5.10;;;17.40;97.00;;;;;;5075348;28;20048;-70
2023/03/17 11:21:17;;;;;;;9.65;5.20;;;17.30;95.90;;;;;;5091514;28;20069;-70
2023/03/17 11:23:55;;;;;;;8.18;4.72;;;17.20;95.70;;;;;;5075530;28;20431;-69
2023/03/17 11:26:45;;;;;;;10.52;5.72;;;17.10;96.30;;;;;;5078385;28;20040;-70
2023/03/17 11:29:23;;;;;;;11.00;5.43;;;17.10;95.50;;;;;;5078566;28;20492;-70
2023/03/17 11:32:12;;;;;;;10.88;5.47;;;17.10;96.50;;;;;;5072294;28;20040;-70
2023/03/17 11:34:44;;;;;;;8.38;5.30;;;17.10;96.10;;;;;;5063464;28;20037;-71
2023/03/17 11:37:24;;;;;;;10.38;5.70;;;17.10;96.10;;;;;;5047062;28;20045;-70
2023/03/17 11:40:06;;;;;;;11.18;5.47;;;17.10;96.80;;;;;;5064591;28;20068;-69
2023/03/17 11:43:04;;;;;;;10.55;5.43;;;17.30;97.50;;;;;;5059113;28;20074;-69
2023/03/17 11:45:39;;;;;;;11.38;6.40;;;17.50;96.40;;;;;;5041405;28;20040;-70
2023/03/17 11:48:33;;;;;;;11.25;5.75;;;17.50;96.20;;;;;;5058818;28;20036;-70
2023/03/17 11:51:29;;;;;;;12.40;6.57;;;17.60;96.00;;;;;;5031821;28;20052;-69
2023/03/17 11:54:27;;;;;;;9.80;5.95;;;17.70;96.00;;;;;;5060497;28;20571;-70
2023/03/17 11:57:15;;;;;;;11.88;6.30;;;17.70;96.80;;;;;;5042406;28;20118;-71
2023/03/17 12:00:05;;;;;;;10.57;6.22;;;17.80;96.10;;;;;;5058286;28;20079;-70
2023/03/17 12:02:43;;;;;;;9.77;5.88;;;17.80;96.20;;;;;;5044404;28;20039;-70
2023/03/17 12:05:14;;;;;;;14.05;6.40;;;17.90;96.20;;;;;;5061869;28;20040;-70
2023/03/17 12:07:43;;;;;;;10.40;6.43;;;18.00;96.20;;;;;;5052684;28;21700;-70
2023/03/17 12:10:25;;;;;;;10.45;6.22;;;18.00;95.70;;;;;;5063262;28;20071;-70
2023/03/17 12:13:10;;;;;;;10.05;5.90;;;18.20;95.50;;;;;;5059457;28;20044;-70
2023/03/17 12:15:50;;;;;;;10.32;5.80;;;18.20;94.90;;;;;;5064796;28;20100;-70
2023/03/17 12:18:25;;;;;;;12.63;6.43;;;18.10;94.70;;;;;;5062700;28;20071;-69
2023/03/17 12:21:00;;;;;;;10.30;5.82;;;18.00;94.90;;;;;;5061618;28;20087;-69
2023/03/17 12:23:48;;;;;;;9.95;6.47;;;17.90;95.40;;;;;;5044950;28;20047;-70
2023/03/17 12:26:54;;;;;;;11.05;6.20;;;17.90;95.20;;;;;;5038617;28;20043;-70
2023/03/17 12:29:42;;;;;;;11.80;6.47;;;17.90;95.30;;;;;;5056692;28;20062;-70
2023/03/17 12:32:14;;;;;;;12.23;6.07;;;17.90;95.40;;;;;;5065259;28;20119;-70
2023/03/17 12:34:50;;;;;;;12.50;6.50;;;18.00;96.40;;;;;;5047333;28;20040;-70
2023/03/17 12:37:17;;;;;;;10.75;6.35;;;18.10;95.50;;;;;;5047741;28;20067;-70
2023/03/17 12:39:59;;;;;;;10.85;6.20;;;18.10;96.00;;;;;;5047639;28;20558;-70
2023/03/17 12:42:51;;;;;;;11.57;7.35;;;18.00;95.20;;;;;;5061899;28;20757;-70
2023/03/17 12:45:34;;;;;;;12.88;6.93;;;17.80;95.40;;;;;;5058689;28;20048;-70
2023/03/17 12:47:59;;;;;;;10.93;6.50;;;17.80;94.60;;;;;;5064651;28;20048;-69
2023/03/17 12:50:37;;;;;;;12.80;6.55;;;17.70;95.90;;;;;;5046796;28;20040;-69
2023/03/17 12:53:27;;;;;;;11.63;6.93;;;17.80;96.10;;;;;;5063676;28;20048;-70
2023/03/17 12:55:56;;;;;;;11.35;6.75;;;17.90;95.60;;;;;;5064044;28;20098;-70
2023/03/17 12:58:34;;;;;;;11.98;7.28;;;17.90;94.90;;;;;;5059006;28;20040;-70
2023/03/17 13:01:08;;;;;;;12.02;7.30;;;17.80;94.80;;;;;;5060161;28;20121;-69
2023/03/17 13:03:37;;;;;;;10.77;7.35;;;17.70;95.50;;;;;;5061081;28;20086;-70